Time;durP1;ratioP1;P1;durP2;ratioP2;P2;SDS_P1;SDS_P2;PMS_P1;PMS_P2;Temp;Humidity;BMP_temperature;BMP_pressure;BME280_temperature;BME280_humidity;BME280_pressure;Samples;Min_cycle;Max_cycle;Signal;HPM_P1;HPM_P2
2023/06/04 00:03:27;;;;;;;8.23;7.43;;;18.70;72.10;;;;;;10347158;28;20254;-81
2023/06/04 00:08:29;;;;;;;8.63;7.63;;;18.70;71.40;;;;;;10379156;28;20206;-82
2023/06/04 00:13:32;;;;;;;7.23;6.63;;;18.60;72.50;;;;;;10340050;28;20617;-82
2023/06/04 00:18:35;;;;;;;8.07;7.27;;;18.60;72.30;;;;;;10344421;28;20286;-81
2023/06/04 00:23:37;;;;;;;8.10;6.97;;;18.50;71.40;;;;;;10386579;28;20227;-83
2023/06/04 00:28:40;;;;;;;8.00;7.20;;;18.50;71.40;;;;;;10362646;28;21025;-81
2023/06/04 00:33:42;;;;;;;7.57;6.80;;;18.40;71.30;;;;;;10350921;28;20725;-82
2023/06/04 00:38:45;;;;;;;7.30;6.60;;;18.30;72.10;;;;;;10348033;28;20223;-81
2023/06/04 00:43:55;;;;;;;6.83;6.23;;;18.20;72.60;;;;;;10364441;28;20690;-81
2023/06/04 00:48:58;;;;;;;6.57;6.07;;;18.20;72.40;;;;;;10389890;28;20231;-82
2023/06/04 00:54:08;;;;;;;7.07;6.40;;;18.20;72.60;;;;;;10349545;28;20710;-82
2023/06/04 00:59:12;;;;;;;6.70;6.20;;;18.10;72.40;;;;;;10347807;28;20650;-82
2023/06/04 01:04:19;;;;;;;6.70;6.10;;;18.10;71.80;;;;;;10308621;28;20231;-82
2023/06/04 01:09:21;;;;;;;8.50;6.53;;;18.10;71.90;;;;;;10362915;28;20203;-82
2023/06/04 01:14:25;;;;;;;7.23;6.57;;;18.10;72.40;;;;;;10382183;28;20251;-81
2023/06/04 01:20:04;;;;;;;7.00;6.50;;;18.00;71.80;;;;;;10363570;28;20286;-81
2023/06/04 01:25:11;;;;;;;8.97;6.87;;;17.90;72.70;;;;;;10352977;28;20230;-82
2023/06/04 01:30:15;;;;;;;7.40;6.70;;;17.90;73.10;;;;;;10368307;28;20293;-81
2023/06/04 01:35:17;;;;;;;7.33;6.40;;;17.90;73.00;;;;;;10368801;28;20211;-83
2023/06/04 01:40:19;;;;;;;6.97;6.30;;;17.90;73.10;;;;;;10371380;28;20305;-81
2023/06/04 01:45:24;;;;;;;7.27;6.60;;;17.80;72.80;;;;;;10368339;28;20199;-83
2023/06/04 01:50:26;;;;;;;6.20;5.70;;;17.70;72.80;;;;;;10371554;28;20227;-81
2023/06/04 01:55:33;;;;;;;8.47;6.23;;;17.60;72.20;;;;;;10385599;28;20234;-82
2023/06/04 02:00:36;;;;;;;6.90;5.93;;;17.60;73.10;;;;;;10401047;28;20237;-81
2023/06/04 02:05:38;;;;;;;8.00;6.53;;;17.50;72.00;;;;;;10372835;28;20254;-81
2023/06/04 02:10:40;;;;;;;6.10;5.60;;;17.50;71.90;;;;;;10355585;28;20258;-82
2023/06/04 02:15:44;;;;;;;5.63;5.23;;;17.40;72.40;;;;;;10356430;28;20207;-82
2023/06/04 02:20:46;;;;;;;6.23;5.70;;;17.40;71.90;;;;;;10354535;28;20224;-82
2023/06/04 02:25:49;;;;;;;5.73;5.13;;;17.40;72.10;;;;;;10354776;28;20258;-83
2023/06/04 02:30:53;;;;;;;5.10;4.70;;;17.40;71.90;;;;;;10369968;28;20311;-81
2023/06/04 02:35:55;;;;;;;4.87;4.57;;;17.30;71.20;;;;;;10369200;28;20608;-82
2023/06/04 02:40:57;;;;;;;5.10;4.60;;;17.30;71.70;;;;;;10373055;28;20223;-81
2023/06/04 02:46:01;;;;;;;8.07;5.47;;;17.20;71.70;;;;;;10373048;28;20244;-82
2023/06/04 02:51:04;;;;;;;4.90;4.50;;;17.20;70.20;;;;;;10374852;28;20222;-82
2023/06/04 02:56:07;;;;;;;4.97;4.57;;;17.20;70.70;;;;;;10355861;28;20236;-83
2023/06/04 03:01:18;;;;;;;4.67;4.27;;;17.10;69.70;;;;;;10354499;28;20223;-84
2023/06/04 03:06:22;;;;;;;6.00;4.40;;;17.10;69.70;;;;;;10352695;28;20572;-83
2023/06/04 03:11:24;;;;;;;4.97;4.57;;;17.00;70.10;;;;;;10352333;28;20231;-82
2023/06/04 03:16:28;;;;;;;5.03;4.60;;;16.90;71.00;;;;;;10384043;28;20310;-82
2023/06/04 03:21:30;;;;;;;5.57;5.10;;;16.90;70.50;;;;;;10349216;28;20243;-83
2023/06/04 03:26:32;;;;;;;5.50;5.00;;;16.80;71.40;;;;;;10365906;28;20195;-81
2023/06/04 03:31:37;;;;;;;7.37;5.67;;;16.80;72.50;;;;;;10362129;28;20223;-82
2023/06/04 03:36:40;;;;;;;6.70;6.10;;;16.80;72.30;;;;;;10342896;28;20251;-81
2023/06/04 03:41:44;;;;;;;8.20;6.60;;;16.80;72.70;;;;;;10360744;28;20331;-82
2023/06/04 03:46:48;;;;;;;8.27;5.60;;;16.80;73.50;;;;;;10373326;28;20203;-82
2023/06/04 03:51:51;;;;;;;6.10;5.60;;;16.80;74.10;;;;;;10348190;28;20223;-83
2023/06/04 03:56:57;;;;;;;5.73;5.20;;;16.80;73.60;;;;;;10362138;28;20211;-83
2023/06/04 04:02:01;;;;;;;6.33;5.83;;;16.90;74.00;;;;;;10359851;28;20631;-82
2023/06/04 04:07:04;;;;;;;6.30;5.70;;;16.80;73.70;;;;;;10342550;28;20258;-82
2023/06/04 04:12:07;;;;;;;6.60;6.00;;;16.80;73.40;;;;;;10344697;28;20318;-82
2023/06/04 04:17:12;;;;;;;5.63;5.20;;;16.80;73.90;;;;;;10359500;28;20239;-83
2023/06/04 04:22:17;;;;;;;6.77;5.50;;;16.80;74.90;;;;;;10377536;28;20242;-81
2023/06/04 04:27:19;;;;;;;5.30;4.87;;;16.80;74.50;;;;;;10362141;28;20199;-82
2023/06/04 04:32:23;;;;;;;6.60;4.93;;;16.90;75.10;;;;;;10345357;28;20259;-82
2023/06/04 04:37:26;;;;;;;5.13;4.67;;;16.90;74.70;;;;;;10362061;28;20306;-81
2023/06/04 04:42:31;;;;;;;4.67;4.23;;;17.00;75.10;;;;;;10342751;28;20227;-82
2023/06/04 04:47:36;;;;;;;4.67;4.27;;;17.00;73.90;;;;;;10361800;28;20199;-82
2023/06/04 04:52:38;;;;;;;4.60;4.20;;;17.00;74.00;;;;;;10394587;28;20603;-82
2023/06/04 04:57:41;;;;;;;5.50;4.43;;;17.10;73.80;;;;;;10376835;28;20235;-82
2023/06/04 05:02:46;;;;;;;4.17;3.87;;;17.10;73.40;;;;;;10360183;28;20216;-82
2023/06/04 05:07:49;;;;;;;5.00;4.60;;;17.20;73.60;;;;;;10348120;28;20223;-82
2023/06/04 05:12:53;;;;;;;4.33;3.93;;;17.20;73.80;;;;;;10344962;28;20593;-82
2023/06/04 05:18:00;;;;;;;3.77;3.37;;;17.30;72.80;;;;;;10378112;28;20656;-82
2023/06/04 05:23:05;;;;;;;3.87;3.50;;;17.30;72.50;;;;;;10343502;28;20284;-82
2023/06/04 05:28:08;;;;;;;6.27;4.40;;;17.40;71.50;;;;;;10360849;28;20614;-82
2023/06/04 05:33:17;;;;;;;4.50;3.57;;;17.40;71.60;;;;;;10362672;28;20235;-82
2023/06/04 05:38:25;;;;;;;3.57;3.37;;;17.50;72.80;;;;;;10362115;28;20219;-82
2023/06/04 05:43:28;;;;;;;3.60;2.80;;;17.60;71.40;;;;;;10346005;28;20310;-82
2023/06/04 05:48:32;;;;;;;5.13;3.33;;;17.70;70.50;;;;;;10347018;28;20202;-83
2023/06/04 05:53:34;;;;;;;3.57;3.07;;;17.80;69.10;;;;;;10363682;28;20231;-83
2023/06/04 05:58:36;;;;;;;3.80;3.53;;;17.90;69.30;;;;;;10364771;28;20219;-83
2023/06/04 06:03:42;;;;;;;3.10;2.90;;;18.00;69.60;;;;;;10365796;28;20227;-83
2023/06/04 06:08:45;;;;;;;5.93;2.93;;;18.10;68.90;;;;;;10345632;28;20199;-81
2023/06/04 06:13:47;;;;;;;3.13;2.80;;;18.20;66.80;;;;;;10369366;28;20215;-82
2023/06/04 06:18:53;;;;;;;8.37;3.43;;;18.30;67.20;;;;;;10367093;28;20238;-82
2023/06/04 06:23:55;;;;;;;2.93;2.73;;;18.30;66.30;;;;;;10361365;28;20705;-81
2023/06/04 06:28:57;;;;;;;3.70;3.00;;;18.50;64.50;;;;;;10348115;28;20230;-82
2023/06/04 06:34:01;;;;;;;3.03;2.83;;;18.60;64.70;;;;;;10393578;28;20259;-83
2023/06/04 06:39:03;;;;;;;3.43;3.10;;;18.70;62.00;;;;;;10385911;28;20223;-82
2023/06/04 06:44:05;;;;;;;2.80;2.50;;;18.80;63.80;;;;;;10354432;28;20227;-81
2023/06/04 06:49:09;;;;;;;2.80;2.60;;;19.10;61.70;;;;;;10389960;28;20715;-82
2023/06/04 06:54:11;;;;;;;2.87;2.67;;;19.40;64.20;;;;;;10370728;28;20262;-82
2023/06/04 06:59:13;;;;;;;3.10;2.83;;;19.60;61.40;;;;;;10386417;28;20242;-81
2023/06/04 07:04:17;;;;;;;3.57;2.40;;;19.90;63.30;;;;;;10385619;28;20218;-81
2023/06/04 07:09:19;;;;;;;3.00;2.70;;;20.10;59.20;;;;;;10314720;28;20200;-82
2023/06/04 07:14:21;;;;;;;2.73;2.53;;;20.40;59.40;;;;;;10348550;28;20770;-81
2023/06/04 07:19:25;;;;;;;4.23;3.00;;;20.60;59.80;;;;;;10367336;28;20239;-82
2023/06/04 07:24:27;;;;;;;2.90;2.70;;;20.70;60.20;;;;;;10381681;28;20223;-81
2023/06/04 07:29:29;;;;;;;3.63;2.60;;;20.90;59.90;;;;;;10375181;28;20195;-81
2023/06/04 07:34:33;;;;;;;3.33;3.03;;;21.00;58.30;;;;;;10371373;28;20226;-82
2023/06/04 07:39:36;;;;;;;4.07;3.47;;;21.20;59.20;;;;;;10356815;28;20231;-81
2023/06/04 07:44:38;;;;;;;3.40;3.10;;;21.60;58.70;;;;;;10392364;28;20238;-82
2023/06/04 07:49:42;;;;;;;3.60;2.83;;;21.90;57.70;;;;;;10373074;28;20615;-82
2023/06/04 07:54:44;;;;;;;5.00;2.90;;;22.10;58.00;;;;;;10347979;28;20358;-82
2023/06/04 07:59:49;;;;;;;5.87;2.90;;;22.30;57.40;;;;;;10359679;28;20234;-82
2023/06/04 08:04:53;;;;;;;2.70;2.50;;;22.40;57.40;;;;;;10380207;28;20552;-82
2023/06/04 08:09:58;;;;;;;3.20;2.90;;;22.60;58.00;;;;;;10384576;28;20290;-81
2023/06/04 08:15:00;;;;;;;2.70;2.50;;;22.80;56.70;;;;;;10379178;28;20238;-81
2023/06/04 08:20:06;;;;;;;3.50;3.30;;;23.00;56.80;;;;;;10376002;28;20224;-81
2023/06/04 08:25:09;;;;;;;3.90;3.60;;;23.10;56.80;;;;;;10369099;28;20701;-81
2023/06/04 08:30:12;;;;;;;3.20;2.90;;;23.20;56.90;;;;;;10376817;28;20233;-82
2023/06/04 08:35:15;;;;;;;3.80;3.50;;;23.60;56.90;;;;;;10376440;28;20203;-82
2023/06/04 08:40:17;;;;;;;3.60;3.30;;;24.50;56.20;;;;;;10374674;28;20242;-83
2023/06/04 08:45:21;;;;;;;3.43;3.13;;;25.30;54.80;;;;;;10378015;28;20226;-83
2023/06/04 08:50:26;;;;;;;6.43;3.30;;;26.00;54.20;;;;;;10355720;28;20427;-82
2023/06/04 08:55:28;;;;;;;3.07;2.77;;;26.60;53.50;;;;;;10374630;28;20207;-82
2023/06/04 09:00:30;;;;;;;3.70;3.03;;;27.10;51.90;;;;;;10371304;28;20227;-83
2023/06/04 09:05:35;;;;;;;3.00;2.70;;;27.50;51.00;;;;;;10341611;28;20200;-83
2023/06/04 09:10:39;;;;;;;3.60;3.17;;;27.90;50.90;;;;;;10374603;28;20223;-82
2023/06/04 09:15:41;;;;;;;4.33;3.07;;;28.20;50.30;;;;;;10373975;28;20203;-82
2023/06/04 09:20:44;;;;;;;4.73;4.30;;;28.50;50.90;;;;;;10375746;28;20223;-81
2023/06/04 09:25:46;;;;;;;2.93;2.73;;;28.90;50.90;;;;;;10378585;28;20206;-81
2023/06/04 09:30:53;;;;;;;3.70;3.40;;;29.40;49.70;;;;;;10380579;28;20704;-82
2023/06/04 09:35:56;;;;;;;3.63;3.33;;;29.80;49.60;;;;;;10363228;28;20268;-82
2023/06/04 09:41:00;;;;;;;3.63;3.30;;;30.50;47.80;;;;;;10379971;28;20282;-81
2023/06/04 09:46:13;;;;;;;3.13;2.93;;;31.20;46.20;;;;;;10383002;28;20195;-81
2023/06/04 09:51:19;;;;;;;3.63;3.33;;;31.90;46.50;;;;;;10373242;28;20227;-82
2023/06/04 09:56:21;;;;;;;3.40;3.20;;;32.90;43.20;;;;;;10371589;28;20202;-82
2023/06/04 10:01:26;;;;;;;3.65;3.45;;;34.00;43.90;;;;;;10372342;28;20223;-82
2023/06/04 10:06:33;;;;;;;3.72;3.28;;;35.30;42.40;;;;;;10372425;28;20265;-82
2023/06/04 10:11:38;;;;;;;3.67;3.38;;;36.10;40.80;;;;;;10389863;28;20262;-81
2023/06/04 10:16:41;;;;;;;3.70;3.45;;;37.00;40.10;;;;;;10371765;28;20230;-82
2023/06/04 10:21:45;;;;;;;4.07;3.77;;;37.40;38.20;;;;;;10372128;28;20226;-82
2023/06/04 10:26:48;;;;;;;4.30;3.90;;;36.10;38.70;;;;;;10386786;28;20740;-82
2023/06/04 10:31:55;;;;;;;4.13;3.60;;;33.90;39.70;;;;;;10387565;28;20242;-82
2023/06/04 10:36:58;;;;;;;3.63;3.43;;;31.90;40.20;;;;;;10393297;28;20203;-82
2023/06/04 10:42:03;;;;;;;6.37;4.00;;;30.30;43.00;;;;;;10388311;28;20239;-82
2023/06/04 10:47:06;;;;;;;4.30;4.00;;;29.20;45.00;;;;;;10387418;28;20290;-82
2023/06/04 10:52:12;;;;;;;3.87;3.60;;;28.30;45.00;;;;;;10386747;28;20254;-82
2023/06/04 10:57:16;;;;;;;4.20;3.77;;;27.60;47.50;;;;;;10367872;28;20301;-82
2023/06/04 11:02:18;;;;;;;3.70;3.40;;;27.00;46.60;;;;;;10388175;28;20564;-81
2023/06/04 11:07:22;;;;;;;4.97;3.27;;;26.60;48.30;;;;;;10385193;28;20208;-81
2023/06/04 11:12:24;;;;;;;4.33;4.03;;;26.20;48.80;;;;;;10385269;28;20754;-81
2023/06/04 11:17:26;;;;;;;4.90;3.90;;;25.90;50.00;;;;;;10386422;28;20195;-81
2023/06/04 11:22:30;;;;;;;4.20;3.90;;;25.60;49.60;;;;;;10385361;28;20219;-82
2023/06/04 11:27:34;;;;;;;4.67;4.13;;;25.50;50.60;;;;;;10368993;28;20214;-81
2023/06/04 11:32:36;;;;;;;4.13;3.83;;;25.40;50.30;;;;;;10385873;28;20661;-81
2023/06/04 11:37:40;;;;;;;4.47;4.07;;;25.40;50.40;;;;;;10387642;28;20230;-81
2023/06/04 11:42:43;;;;;;;5.10;4.70;;;25.30;50.00;;;;;;10388651;28;20251;-81
2023/06/04 11:47:47;;;;;;;4.17;3.87;;;25.20;50.70;;;;;;10388595;28;20274;-81
2023/06/04 11:52:53;;;;;;;4.57;4.17;;;25.10;50.50;;;;;;10388907;28;20219;-80
2023/06/04 11:57:55;;;;;;;5.00;4.60;;;25.00;50.30;;;;;;10390446;28;20215;-80
2023/06/04 12:02:58;;;;;;;5.63;3.80;;;24.90;50.00;;;;;;10388693;28;20306;-81
2023/06/04 12:08:09;;;;;;;4.20;3.90;;;24.90;50.30;;;;;;10383511;28;20721;-81
2023/06/04 12:13:12;;;;;;;4.17;3.87;;;24.80;49.70;;;;;;10388690;28;20262;-81
2023/06/04 12:18:24;;;;;;;10.47;4.33;;;24.80;50.30;;;;;;10385813;28;20254;-80
2023/06/04 12:23:28;;;;;;;5.20;4.60;;;24.70;50.20;;;;;;10381259;28;20231;-79
2023/06/04 12:28:30;;;;;;;4.80;4.40;;;24.80;48.60;;;;;;10374596;28;20525;-80
2023/06/04 12:33:32;;;;;;;4.50;4.10;;;24.80;50.30;;;;;;10376235;28;20690;-80
2023/06/04 12:38:35;;;;;;;5.30;3.83;;;24.80;50.90;;;;;;10378196;28;20647;-80
2023/06/04 12:43:38;;;;;;;6.10;4.17;;;24.80;49.40;;;;;;10364369;28;21105;-81
2023/06/04 12:48:40;;;;;;;4.17;3.77;;;24.70;49.60;;;;;;10381416;28;20271;-81
2023/06/04 12:53:43;;;;;;;4.20;3.90;;;24.70;49.70;;;;;;10387532;28;20235;-82
2023/06/04 12:58:45;;;;;;;4.43;4.13;;;24.80;49.20;;;;;;10371581;28;20219;-80
2023/06/04 13:03:47;;;;;;;5.47;4.27;;;24.80;49.30;;;;;;10391175;28;20334;-80
2023/06/04 13:08:51;;;;;;;5.67;5.17;;;24.80;49.60;;;;;;10389622;28;20250;-81
2023/06/04 13:13:53;;;;;;;4.63;4.33;;;24.80;49.70;;;;;;10396326;28;20712;-81
2023/06/04 13:18:55;;;;;;;6.30;4.20;;;24.90;48.90;;;;;;10392862;28;20226;-81
2023/06/04 13:23:59;;;;;;;4.30;4.00;;;24.80;47.60;;;;;;10356844;28;20233;-80
2023/06/04 13:29:01;;;;;;;5.37;4.87;;;24.80;48.10;;;;;;10382080;28;20274;-82
2023/06/04 13:34:03;;;;;;;3.67;3.47;;;24.80;48.60;;;;;;10376493;28;20681;-80
2023/06/04 13:39:06;;;;;;;3.93;3.63;;;24.70;49.30;;;;;;10391486;28;20238;-80
2023/06/04 13:44:09;;;;;;;4.33;3.93;;;24.70;48.50;;;;;;10388735;28;20245;-80
2023/06/04 13:49:11;;;;;;;4.60;4.20;;;24.70;48.60;;;;;;10372226;28;20199;-80
2023/06/04 13:54:14;;;;;;;5.00;4.60;;;24.60;47.90;;;;;;10386275;28;20223;-80
2023/06/04 13:59:17;;;;;;;3.83;3.63;;;24.60;47.60;;;;;;10371231;28;20250;-79
2023/06/04 14:04:19;;;;;;;4.50;4.20;;;24.60;49.30;;;;;;10386567;28;20222;-79
2023/06/04 14:09:22;;;;;;;4.60;3.83;;;24.60;48.90;;;;;;10381718;28;20210;-78
2023/06/04 14:14:24;;;;;;;4.70;4.30;;;24.50;49.30;;;;;;10385177;28;20223;-78
2023/06/04 14:19:27;;;;;;;4.57;4.17;;;24.50;49.40;;;;;;10367833;28;20577;-79
2023/06/04 14:24:31;;;;;;;4.00;3.70;;;24.50;47.80;;;;;;10385442;28;20256;-79
2023/06/04 14:29:33;;;;;;;3.73;3.53;;;24.60;48.20;;;;;;10384021;28;20199;-79
2023/06/04 14:34:35;;;;;;;4.17;3.77;;;24.60;47.90;;;;;;10376970;28;20529;-78
2023/06/04 14:39:38;;;;;;;4.53;4.13;;;24.60;47.80;;;;;;10378610;28;20266;-80
2023/06/04 14:44:41;;;;;;;4.70;4.27;;;24.60;47.10;;;;;;10379530;28;20199;-79
2023/06/04 14:49:43;;;;;;;4.43;4.13;;;24.60;45.80;;;;;;10380198;28;20199;-78
2023/06/04 14:54:46;;;;;;;3.97;3.67;;;24.40;47.70;;;;;;10380494;28;20282;-79
2023/06/04 14:59:49;;;;;;;5.20;4.50;;;24.40;49.90;;;;;;10395430;28;20736;-79
2023/06/04 15:04:51;;;;;;;5.17;4.63;;;24.30;47.50;;;;;;10374083;28;20231;-80
2023/06/04 15:09:55;;;;;;;5.10;4.70;;;24.30;48.60;;;;;;10400153;28;20199;-80
2023/06/04 15:14:57;;;;;;;4.50;4.20;;;24.30;46.60;;;;;;10390120;28;20221;-80
2023/06/04 15:19:59;;;;;;;4.40;4.03;;;24.30;47.00;;;;;;10390641;28;20223;-78
2023/06/04 15:25:03;;;;;;;3.83;3.53;;;24.30;46.80;;;;;;10405787;28;20206;-79
2023/06/04 15:30:06;;;;;;;3.90;3.60;;;24.30;47.30;;;;;;10394295;28;20297;-80
2023/06/04 15:35:09;;;;;;;4.77;3.90;;;24.30;47.90;;;;;;10401787;23;20687;-81
2023/06/04 15:40:13;;;;;;;3.63;3.43;;;24.30;47.30;;;;;;10396588;28;20261;-81
2023/06/04 15:45:16;;;;;;;4.63;4.03;;;24.30;48.40;;;;;;10409640;28;20305;-81
2023/06/04 15:50:18;;;;;;;4.47;4.17;;;24.30;46.70;;;;;;10436208;28;20191;-81
2023/06/04 15:55:22;;;;;;;8.83;7.93;;;24.30;48.10;;;;;;10405918;28;20235;-81
2023/06/04 16:00:24;;;;;;;4.50;4.20;;;24.20;48.20;;;;;;10405838;28;20241;-81
2023/06/04 16:05:27;;;;;;;5.77;4.90;;;24.30;46.50;;;;;;10430924;28;20313;-81
2023/06/04 16:10:30;;;;;;;4.20;3.90;;;24.30;48.10;;;;;;10421478;28;20203;-81
2023/06/04 16:15:32;;;;;;;8.40;4.20;;;24.20;48.30;;;;;;10441995;28;20302;-81
2023/06/04 16:20:35;;;;;;;4.23;3.93;;;24.20;46.40;;;;;;10412601;28;20244;-81
2023/06/04 16:25:38;;;;;;;4.37;4.07;;;24.10;48.50;;;;;;10472908;28;20272;-80
2023/06/04 16:30:40;;;;;;;4.33;3.63;;;24.10;49.50;;;;;;10442317;28;20201;-80
2023/06/04 16:35:43;;;;;;;4.40;3.87;;;24.10;48.30;;;;;;10412366;28;20280;-80
2023/06/04 16:40:46;;;;;;;4.10;3.80;;;24.10;48.10;;;;;;10435369;28;20232;-80
2023/06/04 16:45:48;;;;;;;5.10;3.80;;;24.10;47.10;;;;;;10374300;28;20222;-80
2023/06/04 16:50:50;;;;;;;4.20;3.73;;;24.10;46.90;;;;;;10371279;28;20195;-80
2023/06/04 16:55:54;;;;;;;4.27;3.90;;;24.10;48.10;;;;;;10409899;28;20219;-85
2023/06/04 17:00:56;;;;;;;5.57;4.83;;;24.00;47.90;;;;;;10396564;28;20253;-87
2023/06/04 17:05:58;;;;;;;4.40;4.00;;;24.10;48.20;;;;;;10377362;28;20253;-87
2023/06/04 17:11:02;;;;;;;4.07;3.73;;;24.10;49.20;;;;;;10378502;28;20250;-86
2023/06/04 17:16:04;;;;;;;4.20;3.90;;;24.10;49.40;;;;;;10418162;28;20244;-86
2023/06/04 17:21:06;;;;;;;4.13;3.83;;;24.00;49.10;;;;;;10411617;28;20250;-85
2023/06/04 17:26:10;;;;;;;3.90;3.60;;;24.10;48.60;;;;;;10405218;28;20233;-84
2023/06/04 17:31:18;;;;;;;4.77;3.50;;;24.00;48.70;;;;;;10430543;28;20203;-84
2023/06/04 17:36:21;;;;;;;3.33;3.13;;;24.10;48.00;;;;;;10389709;28;20230;-85
2023/06/04 17:41:24;;;;;;;4.30;3.40;;;24.10;48.40;;;;;;10423447;28;20662;-85
2023/06/04 17:46:26;;;;;;;3.33;3.03;;;24.00;48.70;;;;;;10391382;28;20770;-84
2023/06/04 17:51:28;;;;;;;3.53;3.03;;;24.00;47.30;;;;;;10375886;28;20206;-83
2023/06/04 17:56:32;;;;;;;3.30;3.10;;;24.00;47.80;;;;;;10381040;28;20223;-84
2023/06/04 18:01:34;;;;;;;3.23;3.00;;;23.90;47.30;;;;;;10376961;28;20716;-83
2023/06/04 18:06:37;;;;;;;3.20;3.00;;;23.90;49.10;;;;;;10412848;28;20218;-84
2023/06/04 18:11:40;;;;;;;3.50;3.20;;;23.80;48.60;;;;;;10398229;28;20207;-84
2023/06/04 18:16:42;;;;;;;4.57;3.53;;;23.70;48.10;;;;;;10397481;28;20219;-84
2023/06/04 18:21:45;;;;;;;3.47;3.17;;;23.60;49.20;;;;;;10407140;28;20226;-83
2023/06/04 18:26:48;;;;;;;3.30;3.10;;;23.50;50.00;;;;;;10425469;28;20590;-84
2023/06/04 18:31:50;;;;;;;3.37;3.13;;;23.40;50.30;;;;;;10448562;28;20249;-84
2023/06/04 18:36:53;;;;;;;3.10;2.90;;;23.30;50.00;;;;;;10387123;28;20230;-84
2023/06/04 18:41:57;;;;;;;3.17;2.90;;;23.30;49.90;;;;;;10416430;28;20627;-85
2023/06/04 18:47:00;;;;;;;3.00;2.80;;;23.20;47.90;;;;;;10397379;28;20274;-83
2023/06/04 18:52:03;;;;;;;3.20;2.83;;;23.10;50.50;;;;;;10393729;28;20230;-84
2023/06/04 18:57:07;;;;;;;3.27;2.93;;;23.00;50.40;;;;;;10369762;28;20579;-84
2023/06/04 19:02:09;;;;;;;3.83;3.20;;;22.90;50.60;;;;;;10404027;28;20242;-84
2023/06/04 19:07:12;;;;;;;3.20;2.90;;;22.90;49.90;;;;;;10411529;28;20296;-84
2023/06/04 19:12:15;;;;;;;3.90;3.23;;;22.80;50.10;;;;;;10407378;28;20229;-84
2023/06/04 19:17:18;;;;;;;4.03;3.20;;;22.70;50.70;;;;;;10405976;28;20202;-84
2023/06/04 19:22:21;;;;;;;4.90;3.10;;;22.70;52.60;;;;;;10409283;28;20383;-84
2023/06/04 19:27:24;;;;;;;3.27;2.97;;;22.60;50.60;;;;;;10394034;28;20207;-84
2023/06/04 19:32:27;;;;;;;4.60;3.17;;;22.50;52.10;;;;;;10382176;28;20233;-84
2023/06/04 19:37:30;;;;;;;3.30;2.80;;;22.40;52.70;;;;;;10356601;28;20310;-84
2023/06/04 19:42:33;;;;;;;2.50;2.40;;;22.20;53.20;;;;;;10363405;28;20258;-84
2023/06/04 19:47:37;;;;;;;3.63;3.33;;;22.10;53.00;;;;;;10375531;28;20249;-84
2023/06/04 19:52:39;;;;;;;3.20;2.83;;;22.00;53.50;;;;;;10375834;28;20224;-83
2023/06/04 19:57:42;;;;;;;4.83;2.97;;;21.80;53.80;;;;;;10392357;28;20226;-84
2023/06/04 20:02:45;;;;;;;2.63;2.40;;;21.70;54.30;;;;;;10389962;28;20351;-84
2023/06/04 20:07:47;;;;;;;3.20;3.00;;;21.60;54.70;;;;;;10363176;28;20653;-83
2023/06/04 20:12:50;;;;;;;4.03;3.33;;;21.50;55.30;;;;;;10397288;28;20244;-84
2023/06/04 20:17:52;;;;;;;3.10;2.90;;;21.40;54.40;;;;;;10372506;28;20265;-84
2023/06/04 20:22:55;;;;;;;2.80;2.60;;;21.30;54.80;;;;;;10409836;28;20317;-84
2023/06/04 20:27:59;;;;;;;5.73;2.67;;;21.20;54.90;;;;;;10385279;28;20750;-84
2023/06/04 20:33:02;;;;;;;3.07;2.77;;;21.20;54.60;;;;;;10393257;28;20656;-84
2023/06/04 20:38:05;;;;;;;3.90;3.10;;;21.00;55.40;;;;;;10390982;28;20688;-84
2023/06/04 20:43:09;;;;;;;5.10;3.43;;;20.90;55.40;;;;;;10394843;28;20280;-84
2023/06/04 20:48:11;;;;;;;3.60;3.30;;;20.80;54.90;;;;;;10374434;28;20210;-84
2023/06/04 20:53:13;;;;;;;5.00;3.70;;;20.70;55.50;;;;;;10398529;28;20227;-84
2023/06/04 20:58:17;;;;;;;3.27;2.97;;;20.70;56.20;;;;;;10397113;28;20238;-84
2023/06/04 21:03:20;;;;;;;6.87;3.03;;;20.60;56.40;;;;;;10394636;28;20801;-84
2023/06/04 21:08:25;;;;;;;2.77;2.50;;;20.50;56.30;;;;;;10395926;28;20482;-84
2023/06/04 21:13:28;;;;;;;3.30;3.07;;;20.40;55.90;;;;;;10425388;28;20221;-85
2023/06/04 21:18:31;;;;;;;4.00;3.63;;;20.30;56.60;;;;;;10397787;28;20218;-84
2023/06/04 21:23:33;;;;;;;3.20;3.00;;;20.20;56.80;;;;;;10390883;28;20808;-84
2023/06/04 21:28:36;;;;;;;5.13;3.13;;;20.10;57.20;;;;;;10373832;28;20214;-84
2023/06/04 21:33:39;;;;;;;2.93;2.70;;;20.10;57.50;;;;;;10422557;23;20238;-81
2023/06/04 21:38:41;;;;;;;3.17;2.87;;;20.00;56.50;;;;;;10451344;28;20202;-81
2023/06/04 21:43:45;;;;;;;4.07;3.13;;;19.90;57.70;;;;;;10459714;28;20279;-80
2023/06/04 21:48:47;;;;;;;4.07;3.67;;;19.90;57.40;;;;;;10470678;28;20232;-80
2023/06/04 21:53:49;;;;;;;4.30;3.90;;;19.80;57.90;;;;;;10449673;28;20214;-80
2023/06/04 21:58:53;;;;;;;4.00;3.60;;;19.80;57.90;;;;;;10422373;28;20208;-81
2023/06/04 22:03:55;;;;;;;3.70;3.40;;;19.70;58.00;;;;;;10449408;28;20215;-80
2023/06/04 22:08:57;;;;;;;4.30;3.27;;;19.70;57.50;;;;;;10450487;28;20654;-81
2023/06/04 22:14:01;;;;;;;3.40;3.03;;;19.60;57.30;;;;;;10449869;28;20237;-80
2023/06/04 22:19:03;;;;;;;3.40;3.10;;;19.50;57.10;;;;;;10440345;28;20210;-80
2023/06/04 22:24:06;;;;;;;3.80;3.40;;;19.40;57.70;;;;;;10490725;28;20233;-80
2023/06/04 22:29:10;;;;;;;4.20;3.40;;;19.40;57.60;;;;;;10440582;28;20202;-81
2023/06/04 22:34:12;;;;;;;2.87;2.67;;;19.30;57.90;;;;;;10456434;28;20245;-81
2023/06/04 22:39:15;;;;;;;3.40;3.10;;;19.30;57.70;;;;;;10466422;28;20216;-80
2023/06/04 22:44:21;;;;;;;3.73;2.97;;;19.20;58.20;;;;;;10453918;28;20229;-80
2023/06/04 22:49:23;;;;;;;3.97;2.90;;;19.10;58.40;;;;;;10433613;28;20572;-80
2023/06/04 22:54:25;;;;;;;4.10;3.13;;;19.10;58.00;;;;;;10449746;28;20229;-81
2023/06/04 22:59:29;;;;;;;4.50;3.10;;;19.00;58.20;;;;;;10456684;28;20251;-80
2023/06/04 23:04:31;;;;;;;4.10;3.13;;;19.00;58.60;;;;;;10460939;28;20279;-80
2023/06/04 23:09:33;;;;;;;3.23;2.93;;;19.00;59.30;;;;;;10447384;28;20279;-81
2023/06/04 23:14:36;;;;;;;3.10;2.90;;;19.00;58.20;;;;;;10445932;28;20213;-81
2023/06/04 23:19:39;;;;;;;3.83;3.20;;;18.90;58.60;;;;;;10428865;28;20709;-80
2023/06/04 23:24:41;;;;;;;3.40;3.13;;;18.90;58.80;;;;;;10464843;28;20221;-80
2023/06/04 23:29:45;;;;;;;3.40;3.10;;;18.80;59.20;;;;;;10444733;28;20209;-80
2023/06/04 23:34:47;;;;;;;3.07;2.80;;;18.80;59.10;;;;;;10461016;28;20837;-79
2023/06/04 23:39:50;;;;;;;5.27;3.00;;;18.80;58.40;;;;;;10442057;28;20210;-79
2023/06/04 23:44:54;;;;;;;3.23;2.97;;;18.70;58.60;;;;;;10444075;28;20312;-80
2023/06/04 23:49:57;;;;;;;3.43;2.97;;;18.70;58.70;;;;;;10459100;28;20538;-79
2023/06/04 23:54:59;;;;;;;3.40;3.10;;;18.60;59.50;;;;;;10458580;28;20229;-79
